sensor_id;sensor_type;location;lat;lon;timestamp;P1;durP1;ratioP1;P2;durP2;ratioP2
50337;SDS011;46221;51.178;5.900;2023-03-14T00:01:53;5.82;;;1.40;;
50337;SDS011;46221;51.178;5.900;2023-03-14T00:04:19;4.43;;;1.50;;
50337;SDS011;46221;51.178;5.900;2023-03-14T00:06:46;4.90;;;1.45;;
50337;SDS011;46221;51.178;5.900;2023-03-14T00:09:13;5.50;;;1.67;;
50337;SDS011;46221;51.178;5.900;2023-03-14T00:11:40;7.00;;;1.55;;
50337;SDS011;46221;51.178;5.900;2023-03-14T00:14:06;4.10;;;1.08;;
50337;SDS011;46221;51.178;5.900;2023-03-14T00:16:33;5.38;;;1.45;;
50337;SDS011;46221;51.178;5.900;2023-03-14T00:18:59;4.45;;;1.40;;
50337;SDS011;46221;51.178;5.900;2023-03-14T00:21:26;5.05;;;1.38;;
50337;SDS011;46221;51.178;5.900;2023-03-14T00:23:52;5.68;;;1.23;;
50337;SDS011;46221;51.178;5.900;2023-03-14T00:26:19;4.95;;;1.38;;
50337;SDS011;46221;51.178;5.900;2023-03-14T00:28:46;4.75;;;1.35;;
50337;SDS011;46221;51.178;5.900;2023-03-14T00:31:14;3.97;;;1.15;;
50337;SDS011;46221;51.178;5.900;2023-03-14T00:33:41;3.08;;;1.08;;
50337;SDS011;46221;51.178;5.900;2023-03-14T00:36:08;4.40;;;1.25;;
50337;SDS011;46221;51.178;5.900;2023-03-14T00:38:36;2.65;;;0.90;;
50337;SDS011;46221;51.178;5.900;2023-03-14T00:41:03;5.15;;;1.70;;
50337;SDS011;46221;51.178;5.900;2023-03-14T00:43:29;3.20;;;1.08;;
50337;SDS011;46221;51.178;5.900;2023-03-14T00:45:57;4.85;;;1.60;;
50337;SDS011;46221;51.178;5.900;2023-03-14T00:48:23;2.75;;;1.05;;
50337;SDS011;46221;51.178;5.900;2023-03-14T00:50:50;4.00;;;1.20;;
50337;SDS011;46221;51.178;5.900;2023-03-14T00:53:16;3.03;;;1.10;;
50337;SDS011;46221;51.178;5.900;2023-03-14T00:55:43;3.80;;;1.38;;
50337;SDS011;46221;51.178;5.900;2023-03-14T00:58:10;4.93;;;1.23;;
50337;SDS011;46221;51.178;5.900;2023-03-14T01:00:36;2.95;;;0.77;;
50337;SDS011;46221;51.178;5.900;2023-03-14T01:03:03;3.35;;;1.17;;
50337;SDS011;46221;51.178;5.900;2023-03-14T01:05:30;3.20;;;1.10;;
50337;SDS011;46221;51.178;5.900;2023-03-14T01:07:56;5.07;;;1.08;;
50337;SDS011;46221;51.178;5.900;2023-03-14T01:10:23;3.83;;;1.30;;
50337;SDS011;46221;51.178;5.900;2023-03-14T01:12:50;4.32;;;1.00;;
50337;SDS011;46221;51.178;5.900;2023-03-14T01:15:16;4.63;;;1.30;;
50337;SDS011;46221;51.178;5.900;2023-03-14T01:17:42;5.85;;;1.25;;
50337;SDS011;46221;51.178;5.900;2023-03-14T01:20:10;4.32;;;1.15;;
50337;SDS011;46221;51.178;5.900;2023-03-14T01:22:37;4.25;;;1.00;;
50337;SDS011;46221;51.178;5.900;2023-03-14T01:25:08;3.60;;;1.23;;
50337;SDS011;46221;51.178;5.900;2023-03-14T01:27:34;4.50;;;1.27;;
50337;SDS011;46221;51.178;5.900;2023-03-14T01:30:01;4.35;;;0.88;;
50337;SDS011;46221;51.178;5.900;2023-03-14T01:32:28;3.80;;;0.90;;
50337;SDS011;46221;51.178;5.900;2023-03-14T01:34:54;3.45;;;1.30;;
50337;SDS011;46221;51.178;5.900;2023-03-14T01:37:20;5.15;;;0.85;;
50337;SDS011;46221;51.178;5.900;2023-03-14T01:39:47;3.83;;;0.90;;
50337;SDS011;46221;51.178;5.900;2023-03-14T01:42:14;4.00;;;1.10;;
50337;SDS011;46221;51.178;5.900;2023-03-14T01:44:50;5.20;;;1.33;;
50337;SDS011;46221;51.178;5.900;2023-03-14T01:47:18;2.53;;;0.98;;
50337;SDS011;46221;51.178;5.900;2023-03-14T01:49:45;2.72;;;1.00;;
50337;SDS011;46221;51.178;5.900;2023-03-14T01:54:55;3.67;;;1.15;;
50337;SDS011;46221;51.178;5.900;2023-03-14T01:57:33;6.60;;;1.42;;
50337;SDS011;46221;51.178;5.900;2023-03-14T02:00:15;3.45;;;0.93;;
50337;SDS011;46221;51.178;5.900;2023-03-14T02:02:47;3.50;;;1.02;;
50337;SDS011;46221;51.178;5.900;2023-03-14T02:05:23;4.50;;;1.38;;
50337;SDS011;46221;51.178;5.900;2023-03-14T02:07:54;3.40;;;1.13;;
50337;SDS011;46221;51.178;5.900;2023-03-14T02:10:22;3.95;;;1.30;;
50337;SDS011;46221;51.178;5.900;2023-03-14T02:12:50;5.15;;;1.33;;
50337;SDS011;46221;51.178;5.900;2023-03-14T02:15:17;5.90;;;1.35;;
50337;SDS011;46221;51.178;5.900;2023-03-14T02:17:44;3.97;;;1.20;;
50337;SDS011;46221;51.178;5.900;2023-03-14T02:20:18;4.95;;;1.35;;
50337;SDS011;46221;51.178;5.900;2023-03-14T02:22:49;4.95;;;1.23;;
50337;SDS011;46221;51.178;5.900;2023-03-14T02:25:22;4.63;;;1.30;;
50337;SDS011;46221;51.178;5.900;2023-03-14T02:27:51;3.35;;;1.00;;
50337;SDS011;46221;51.178;5.900;2023-03-14T02:30:21;3.63;;;1.10;;
50337;SDS011;46221;51.178;5.900;2023-03-14T02:32:49;4.78;;;1.30;;
50337;SDS011;46221;51.178;5.900;2023-03-14T02:35:19;6.18;;;1.40;;
50337;SDS011;46221;51.178;5.900;2023-03-14T02:37:55;5.78;;;1.60;;
50337;SDS011;46221;51.178;5.900;2023-03-14T02:40:23;3.17;;;1.30;;
50337;SDS011;46221;51.178;5.900;2023-03-14T02:42:49;3.63;;;1.25;;
50337;SDS011;46221;51.178;5.900;2023-03-14T02:48:05;5.38;;;1.30;;
50337;SDS011;46221;51.178;5.900;2023-03-14T02:50:29;4.88;;;1.40;;
50337;SDS011;46221;51.178;5.900;2023-03-14T02:52:56;3.67;;;1.20;;
50337;SDS011;46221;51.178;5.900;2023-03-14T02:55:23;3.40;;;0.90;;
50337;SDS011;46221;51.178;5.900;2023-03-14T02:57:50;2.92;;;0.95;;
50337;SDS011;46221;51.178;5.900;2023-03-14T03:00:16;4.35;;;1.20;;
50337;SDS011;46221;51.178;5.900;2023-03-14T03:02:43;4.03;;;0.93;;
50337;SDS011;46221;51.178;5.900;2023-03-14T03:05:09;3.67;;;1.10;;
50337;SDS011;46221;51.178;5.900;2023-03-14T03:07:36;3.72;;;1.00;;
50337;SDS011;46221;51.178;5.900;2023-03-14T03:10:02;3.65;;;1.10;;
50337;SDS011;46221;51.178;5.900;2023-03-14T03:12:29;5.00;;;1.33;;
50337;SDS011;46221;51.178;5.900;2023-03-14T03:14:55;4.13;;;1.13;;
50337;SDS011;46221;51.178;5.900;2023-03-14T03:17:21;3.25;;;0.90;;
50337;SDS011;46221;51.178;5.900;2023-03-14T03:19:48;5.93;;;1.30;;
50337;SDS011;46221;51.178;5.900;2023-03-14T03:22:14;4.95;;;1.75;;
50337;SDS011;46221;51.178;5.900;2023-03-14T03:24:40;4.95;;;1.60;;
50337;SDS011;46221;51.178;5.900;2023-03-14T03:27:07;2.55;;;0.80;;
50337;SDS011;46221;51.178;5.900;2023-03-14T03:29:33;4.50;;;1.10;;
50337;SDS011;46221;51.178;5.900;2023-03-14T03:31:59;4.03;;;1.00;;
50337;SDS011;46221;51.178;5.900;2023-03-14T03:34:27;3.97;;;1.00;;
50337;SDS011;46221;51.178;5.900;2023-03-14T03:36:55;4.78;;;1.50;;
50337;SDS011;46221;51.178;5.900;2023-03-14T03:39:22;4.18;;;1.10;;
50337;SDS011;46221;51.178;5.900;2023-03-14T03:41:48;4.63;;;1.20;;
50337;SDS011;46221;51.178;5.900;2023-03-14T03:44:14;5.72;;;1.17;;
50337;SDS011;46221;51.178;5.900;2023-03-14T03:46:41;4.10;;;1.10;;
50337;SDS011;46221;51.178;5.900;2023-03-14T03:49:07;4.40;;;1.02;;
50337;SDS011;46221;51.178;5.900;2023-03-14T03:51:33;6.30;;;1.23;;
50337;SDS011;46221;51.178;5.900;2023-03-14T03:54:00;3.17;;;0.80;;
50337;SDS011;46221;51.178;5.900;2023-03-14T03:56:26;3.80;;;0.80;;
50337;SDS011;46221;51.178;5.900;2023-03-14T03:58:52;3.08;;;0.75;;
50337;SDS011;46221;51.178;5.900;2023-03-14T04:01:19;2.92;;;0.90;;
50337;SDS011;46221;51.178;5.900;2023-03-14T04:03:45;7.15;;;0.80;;
50337;SDS011;46221;51.178;5.900;2023-03-14T04:06:12;3.13;;;0.77;;
50337;SDS011;46221;51.178;5.900;2023-03-14T04:08:39;2.10;;;0.60;;
50337;SDS011;46221;51.178;5.900;2023-03-14T04:11:07;2.30;;;0.70;;
50337;SDS011;46221;51.178;5.900;2023-03-14T04:13:33;3.20;;;0.75;;
50337;SDS011;46221;51.178;5.900;2023-03-14T04:16:00;1.95;;;0.65;;
50337;SDS011;46221;51.178;5.900;2023-03-14T04:18:27;4.93;;;0.80;;
50337;SDS011;46221;51.178;5.900;2023-03-14T04:20:54;1.77;;;0.73;;
50337;SDS011;46221;51.178;5.900;2023-03-14T04:23:21;2.05;;;0.80;;
50337;SDS011;46221;51.178;5.900;2023-03-14T04:25:50;1.48;;;0.57;;
50337;SDS011;46221;51.178;5.900;2023-03-14T04:28:17;2.45;;;0.70;;
50337;SDS011;46221;51.178;5.900;2023-03-14T04:30:44;2.28;;;0.73;;
50337;SDS011;46221;51.178;5.900;2023-03-14T04:33:10;2.60;;;0.82;;
50337;SDS011;46221;51.178;5.900;2023-03-14T04:35:38;2.53;;;0.82;;
50337;SDS011;46221;51.178;5.900;2023-03-14T04:38:05;3.30;;;1.02;;
50337;SDS011;46221;51.178;5.900;2023-03-14T04:40:31;2.45;;;0.70;;
50337;SDS011;46221;51.178;5.900;2023-03-14T04:42:57;3.20;;;0.90;;
50337;SDS011;46221;51.178;5.900;2023-03-14T04:45:24;3.45;;;0.75;;
50337;SDS011;46221;51.178;5.900;2023-03-14T04:47:50;2.80;;;0.80;;
50337;SDS011;46221;51.178;5.900;2023-03-14T04:50:17;1.30;;;0.57;;
50337;SDS011;46221;51.178;5.900;2023-03-14T04:52:43;2.97;;;1.00;;
50337;SDS011;46221;51.178;5.900;2023-03-14T04:55:09;2.80;;;0.73;;
50337;SDS011;46221;51.178;5.900;2023-03-14T04:57:36;3.00;;;0.75;;
50337;SDS011;46221;51.178;5.900;2023-03-14T05:00:03;2.80;;;0.80;;
50337;SDS011;46221;51.178;5.900;2023-03-14T05:02:33;4.55;;;1.17;;
50337;SDS011;46221;51.178;5.900;2023-03-14T05:05:00;2.42;;;0.82;;
50337;SDS011;46221;51.178;5.900;2023-03-14T05:07:27;3.90;;;0.68;;
50337;SDS011;46221;51.178;5.900;2023-03-14T05:09:53;1.95;;;0.75;;
50337;SDS011;46221;51.178;5.900;2023-03-14T05:12:20;2.85;;;0.73;;
50337;SDS011;46221;51.178;5.900;2023-03-14T05:14:46;3.03;;;0.85;;
50337;SDS011;46221;51.178;5.900;2023-03-14T05:17:13;3.10;;;1.10;;
50337;SDS011;46221;51.178;5.900;2023-03-14T05:19:40;2.78;;;0.70;;
50337;SDS011;46221;51.178;5.900;2023-03-14T05:22:07;5.70;;;1.25;;
50337;SDS011;46221;51.178;5.900;2023-03-14T05:24:33;3.08;;;0.80;;
50337;SDS011;46221;51.178;5.900;2023-03-14T05:27:00;2.85;;;0.60;;
50337;SDS011;46221;51.178;5.900;2023-03-14T05:29:26;4.10;;;1.10;;
50337;SDS011;46221;51.178;5.900;2023-03-14T05:31:52;2.20;;;1.00;;
50337;SDS011;46221;51.178;5.900;2023-03-14T05:34:19;2.95;;;0.85;;
50337;SDS011;46221;51.178;5.900;2023-03-14T05:36:45;1.98;;;0.70;;
50337;SDS011;46221;51.178;5.900;2023-03-14T05:39:12;2.38;;;0.70;;
50337;SDS011;46221;51.178;5.900;2023-03-14T05:41:38;1.20;;;0.57;;
50337;SDS011;46221;51.178;5.900;2023-03-14T05:44:05;5.43;;;1.15;;
50337;SDS011;46221;51.178;5.900;2023-03-14T05:46:31;1.27;;;0.50;;
50337;SDS011;46221;51.178;5.900;2023-03-14T05:48:58;3.05;;;0.82;;
50337;SDS011;46221;51.178;5.900;2023-03-14T05:51:24;1.67;;;0.77;;
50337;SDS011;46221;51.178;5.900;2023-03-14T05:53:51;2.08;;;0.60;;
50337;SDS011;46221;51.178;5.900;2023-03-14T05:56:17;1.27;;;0.50;;
50337;SDS011;46221;51.178;5.900;2023-03-14T05:58:44;1.73;;;0.60;;
50337;SDS011;46221;51.178;5.900;2023-03-14T06:01:10;2.60;;;0.85;;
50337;SDS011;46221;51.178;5.900;2023-03-14T06:03:36;1.35;;;0.70;;
50337;SDS011;46221;51.178;5.900;2023-03-14T06:06:03;2.75;;;0.50;;
50337;SDS011;46221;51.178;5.900;2023-03-14T06:08:29;1.45;;;0.40;;
50337;SDS011;46221;51.178;5.900;2023-03-14T06:10:56;6.82;;;0.93;;
50337;SDS011;46221;51.178;5.900;2023-03-14T06:13:23;1.42;;;0.50;;
50337;SDS011;46221;51.178;5.900;2023-03-14T06:15:49;2.33;;;0.70;;
50337;SDS011;46221;51.178;5.900;2023-03-14T06:18:15;3.75;;;1.10;;
50337;SDS011;46221;51.178;5.900;2023-03-14T06:20:42;1.33;;;0.50;;
50337;SDS011;46221;51.178;5.900;2023-03-14T06:23:08;2.78;;;0.50;;
50337;SDS011;46221;51.178;5.900;2023-03-14T06:25:35;3.03;;;0.82;;
50337;SDS011;46221;51.178;5.900;2023-03-14T06:28:01;2.78;;;0.50;;
50337;SDS011;46221;51.178;5.900;2023-03-14T06:30:28;2.33;;;0.60;;
50337;SDS011;46221;51.178;5.900;2023-03-14T06:32:54;4.80;;;0.88;;
50337;SDS011;46221;51.178;5.900;2023-03-14T06:35:22;2.35;;;0.43;;
50337;SDS011;46221;51.178;5.900;2023-03-14T06:37:48;4.93;;;1.15;;
50337;SDS011;46221;51.178;5.900;2023-03-14T06:40:15;3.10;;;0.73;;
50337;SDS011;46221;51.178;5.900;2023-03-14T06:42:44;3.45;;;0.73;;
50337;SDS011;46221;51.178;5.900;2023-03-14T06:45:10;5.35;;;0.80;;
50337;SDS011;46221;51.178;5.900;2023-03-14T06:47:37;2.58;;;0.57;;
50337;SDS011;46221;51.178;5.900;2023-03-14T06:50:07;2.95;;;0.60;;
50337;SDS011;46221;51.178;5.900;2023-03-14T06:52:35;3.65;;;0.60;;
50337;SDS011;46221;51.178;5.900;2023-03-14T06:55:02;4.32;;;1.20;;
50337;SDS011;46221;51.178;5.900;2023-03-14T06:57:28;3.17;;;0.75;;
50337;SDS011;46221;51.178;5.900;2023-03-14T06:59:55;4.07;;;0.50;;
50337;SDS011;46221;51.178;5.900;2023-03-14T07:02:22;2.28;;;0.65;;
50337;SDS011;46221;51.178;5.900;2023-03-14T07:05:05;2.38;;;0.50;;
50337;SDS011;46221;51.178;5.900;2023-03-14T07:07:31;4.95;;;0.60;;
50337;SDS011;46221;51.178;5.900;2023-03-14T07:09:58;2.65;;;0.80;;
50337;SDS011;46221;51.178;5.900;2023-03-14T07:12:24;3.92;;;1.17;;
50337;SDS011;46221;51.178;5.900;2023-03-14T07:14:50;8.55;;;1.65;;
50337;SDS011;46221;51.178;5.900;2023-03-14T07:17:17;1.55;;;0.60;;
50337;SDS011;46221;51.178;5.900;2023-03-14T07:19:43;1.85;;;0.43;;
50337;SDS011;46221;51.178;5.900;2023-03-14T07:22:09;4.88;;;0.98;;
50337;SDS011;46221;51.178;5.900;2023-03-14T07:24:36;1.60;;;0.52;;
50337;SDS011;46221;51.178;5.900;2023-03-14T07:27:02;2.72;;;0.70;;
50337;SDS011;46221;51.178;5.900;2023-03-14T07:29:28;2.85;;;0.85;;
50337;SDS011;46221;51.178;5.900;2023-03-14T07:31:55;3.25;;;0.88;;
50337;SDS011;46221;51.178;5.900;2023-03-14T07:34:21;3.00;;;0.90;;
50337;SDS011;46221;51.178;5.900;2023-03-14T07:36:48;3.00;;;0.90;;
50337;SDS011;46221;51.178;5.900;2023-03-14T07:39:14;1.45;;;0.52;;
50337;SDS011;46221;51.178;5.900;2023-03-14T07:41:41;1.98;;;0.85;;
50337;SDS011;46221;51.178;5.900;2023-03-14T07:44:07;4.32;;;0.82;;
50337;SDS011;46221;51.178;5.900;2023-03-14T07:46:34;3.92;;;0.65;;
50337;SDS011;46221;51.178;5.900;2023-03-14T07:49:00;2.55;;;0.90;;
50337;SDS011;46221;51.178;5.900;2023-03-14T07:51:26;1.83;;;0.85;;
50337;SDS011;46221;51.178;5.900;2023-03-14T07:53:53;2.45;;;0.93;;
50337;SDS011;46221;51.178;5.900;2023-03-14T07:56:19;3.53;;;0.90;;
50337;SDS011;46221;51.178;5.900;2023-03-14T07:58:46;5.90;;;1.38;;
50337;SDS011;46221;51.178;5.900;2023-03-14T08:01:12;1.63;;;0.75;;
50337;SDS011;46221;51.178;5.900;2023-03-14T08:03:39;1.70;;;0.73;;
50337;SDS011;46221;51.178;5.900;2023-03-14T08:06:05;2.65;;;1.05;;
50337;SDS011;46221;51.178;5.900;2023-03-14T08:08:32;3.33;;;0.82;;
50337;SDS011;46221;51.178;5.900;2023-03-14T08:11:05;2.20;;;0.80;;
50337;SDS011;46221;51.178;5.900;2023-03-14T08:13:31;2.30;;;0.65;;
50337;SDS011;46221;51.178;5.900;2023-03-14T08:15:58;1.85;;;0.82;;
50337;SDS011;46221;51.178;5.900;2023-03-14T08:18:25;2.28;;;0.80;;
50337;SDS011;46221;51.178;5.900;2023-03-14T08:20:51;2.33;;;0.70;;
50337;SDS011;46221;51.178;5.900;2023-03-14T08:23:18;3.05;;;0.65;;
50337;SDS011;46221;51.178;5.900;2023-03-14T08:25:44;2.00;;;0.60;;
50337;SDS011;46221;51.178;5.900;2023-03-14T08:28:11;2.95;;;0.60;;
50337;SDS011;46221;51.178;5.900;2023-03-14T08:30:37;2.42;;;0.68;;
50337;SDS011;46221;51.178;5.900;2023-03-14T08:33:04;3.00;;;0.45;;
50337;SDS011;46221;51.178;5.900;2023-03-14T08:35:30;1.42;;;0.70;;
50337;SDS011;46221;51.178;5.900;2023-03-14T08:37:57;1.35;;;0.50;;
50337;SDS011;46221;51.178;5.900;2023-03-14T08:40:23;0.90;;;0.50;;
50337;SDS011;46221;51.178;5.900;2023-03-14T08:42:50;2.58;;;0.52;;
50337;SDS011;46221;51.178;5.900;2023-03-14T08:45:16;1.77;;;0.38;;
50337;SDS011;46221;51.178;5.900;2023-03-14T08:47:43;5.38;;;1.02;;
50337;SDS011;46221;51.178;5.900;2023-03-14T08:50:10;1.45;;;0.50;;
50337;SDS011;46221;51.178;5.900;2023-03-14T08:52:41;1.67;;;0.52;;
50337;SDS011;46221;51.178;5.900;2023-03-14T08:55:08;2.30;;;0.40;;
50337;SDS011;46221;51.178;5.900;2023-03-14T08:57:35;1.45;;;0.65;;
50337;SDS011;46221;51.178;5.900;2023-03-14T09:00:03;1.13;;;0.40;;
50337;SDS011;46221;51.178;5.900;2023-03-14T09:02:34;1.45;;;0.60;;
50337;SDS011;46221;51.178;5.900;2023-03-14T09:05:00;1.77;;;0.60;;
50337;SDS011;46221;51.178;5.900;2023-03-14T09:07:26;0.40;;;0.40;;
50337;SDS011;46221;51.178;5.900;2023-03-14T09:09:53;1.88;;;0.60;;
50337;SDS011;46221;51.178;5.900;2023-03-14T09:12:19;1.77;;;0.73;;
50337;SDS011;46221;51.178;5.900;2023-03-14T09:14:46;1.23;;;0.40;;
50337;SDS011;46221;51.178;5.900;2023-03-14T09:17:12;0.82;;;0.30;;
50337;SDS011;46221;51.178;5.900;2023-03-14T09:19:38;0.95;;;0.50;;
50337;SDS011;46221;51.178;5.900;2023-03-14T09:22:05;1.38;;;0.38;;
50337;SDS011;46221;51.178;5.900;2023-03-14T09:24:31;0.70;;;0.35;;
50337;SDS011;46221;51.178;5.900;2023-03-14T09:26:58;0.95;;;0.30;;
50337;SDS011;46221;51.178;5.900;2023-03-14T09:29:24;0.77;;;0.50;;
50337;SDS011;46221;51.178;5.900;2023-03-14T09:31:51;1.02;;;0.35;;
50337;SDS011;46221;51.178;5.900;2023-03-14T09:34:17;0.95;;;0.40;;
50337;SDS011;46221;51.178;5.900;2023-03-14T09:36:44;1.15;;;0.35;;
50337;SDS011;46221;51.178;5.900;2023-03-14T09:39:13;1.55;;;0.30;;
50337;SDS011;46221;51.178;5.900;2023-03-14T09:41:43;1.80;;;0.40;;
50337;SDS011;46221;51.178;5.900;2023-03-14T09:44:19;1.60;;;0.50;;
50337;SDS011;46221;51.178;5.900;2023-03-14T09:46:47;1.02;;;0.30;;
50337;SDS011;46221;51.178;5.900;2023-03-14T09:49:20;1.15;;;0.40;;
50337;SDS011;46221;51.178;5.900;2023-03-14T09:51:49;2.83;;;0.52;;
50337;SDS011;46221;51.178;5.900;2023-03-14T09:54:18;1.33;;;0.30;;
50337;SDS011;46221;51.178;5.900;2023-03-14T09:56:49;1.70;;;0.47;;
50337;SDS011;46221;51.178;5.900;2023-03-14T09:59:16;0.80;;;0.30;;
50337;SDS011;46221;51.178;5.900;2023-03-14T10:01:43;0.80;;;0.28;;
50337;SDS011;46221;51.178;5.900;2023-03-14T10:04:10;1.27;;;0.35;;
50337;SDS011;46221;51.178;5.900;2023-03-14T10:06:39;1.95;;;0.77;;
50337;SDS011;46221;51.178;5.900;2023-03-14T10:09:08;1.08;;;0.40;;
50337;SDS011;46221;51.178;5.900;2023-03-14T10:11:35;1.52;;;0.55;;
50337;SDS011;46221;51.178;5.900;2023-03-14T10:16:35;1.60;;;0.43;;
50337;SDS011;46221;51.178;5.900;2023-03-14T10:19:03;1.60;;;0.50;;
50337;SDS011;46221;51.178;5.900;2023-03-14T10:21:30;2.10;;;0.77;;
50337;SDS011;46221;51.178;5.900;2023-03-14T10:26:41;3.05;;;0.60;;
50337;SDS011;46221;51.178;5.900;2023-03-14T10:29:10;1.45;;;0.60;;
50337;SDS011;46221;51.178;5.900;2023-03-14T10:34:15;1.20;;;0.55;;
50337;SDS011;46221;51.178;5.900;2023-03-14T10:36:42;2.03;;;0.63;;
50337;SDS011;46221;51.178;5.900;2023-03-14T10:41:56;1.35;;;0.50;;
50337;SDS011;46221;51.178;5.900;2023-03-14T10:44:27;0.95;;;0.50;;
50337;SDS011;46221;51.178;5.900;2023-03-14T10:47:03;0.75;;;0.40;;
50337;SDS011;46221;51.178;5.900;2023-03-14T10:49:34;1.58;;;0.45;;
50337;SDS011;46221;51.178;5.900;2023-03-14T10:52:12;2.03;;;0.60;;
50337;SDS011;46221;51.178;5.900;2023-03-14T10:54:39;0.65;;;0.30;;
50337;SDS011;46221;51.178;5.900;2023-03-14T10:57:06;0.30;;;0.30;;
50337;SDS011;46221;51.178;5.900;2023-03-14T10:59:37;1.70;;;0.88;;
50337;SDS011;46221;51.178;5.900;2023-03-14T11:04:55;1.23;;;0.57;;
50337;SDS011;46221;51.178;5.900;2023-03-14T11:07:40;1.38;;;0.40;;
50337;SDS011;46221;51.178;5.900;2023-03-14T11:12:55;0.95;;;0.40;;
50337;SDS011;46221;51.178;5.900;2023-03-14T11:15:29;1.40;;;0.50;;
50337;SDS011;46221;51.178;5.900;2023-03-14T11:18:09;1.95;;;0.50;;
50337;SDS011;46221;51.178;5.900;2023-03-14T11:20:39;1.38;;;0.63;;
50337;SDS011;46221;51.178;5.900;2023-03-14T11:30:55;3.40;;;0.85;;
50337;SDS011;46221;51.178;5.900;2023-03-14T11:33:24;2.38;;;0.80;;
50337;SDS011;46221;51.178;5.900;2023-03-14T11:40:58;3.65;;;1.17;;
50337;SDS011;46221;51.178;5.900;2023-03-14T11:43:38;6.05;;;1.48;;
50337;SDS011;46221;51.178;5.900;2023-03-14T11:46:21;3.60;;;1.10;;
50337;SDS011;46221;51.178;5.900;2023-03-14T11:48:57;4.22;;;1.52;;
50337;SDS011;46221;51.178;5.900;2023-03-14T11:51:29;4.25;;;1.20;;
50337;SDS011;46221;51.178;5.900;2023-03-14T11:53:59;4.05;;;1.52;;
50337;SDS011;46221;51.178;5.900;2023-03-14T11:56:33;4.22;;;1.48;;
50337;SDS011;46221;51.178;5.900;2023-03-14T11:59:12;3.40;;;1.20;;
50337;SDS011;46221;51.178;5.900;2023-03-14T12:02:00;5.85;;;1.45;;
50337;SDS011;46221;51.178;5.900;2023-03-14T12:09:40;5.75;;;1.75;;
50337;SDS011;46221;51.178;5.900;2023-03-14T12:12:10;6.43;;;2.10;;
50337;SDS011;46221;51.178;5.900;2023-03-14T12:14:38;4.45;;;1.75;;
50337;SDS011;46221;51.178;5.900;2023-03-14T12:19:45;4.88;;;1.90;;
50337;SDS011;46221;51.178;5.900;2023-03-14T12:22:28;6.95;;;1.98;;
50337;SDS011;46221;51.178;5.900;2023-03-14T12:24:57;6.03;;;2.38;;
50337;SDS011;46221;51.178;5.900;2023-03-14T12:27:40;6.50;;;2.28;;
50337;SDS011;46221;51.178;5.900;2023-03-14T12:30:18;6.63;;;2.30;;
50337;SDS011;46221;51.178;5.900;2023-03-14T12:35:40;5.45;;;1.88;;
50337;SDS011;46221;51.178;5.900;2023-03-14T12:40:42;5.28;;;1.80;;
50337;SDS011;46221;51.178;5.900;2023-03-14T12:43:29;4.65;;;1.80;;
50337;SDS011;46221;51.178;5.900;2023-03-14T12:46:42;7.70;;;2.05;;
50337;SDS011;46221;51.178;5.900;2023-03-14T12:48:55;6.72;;;2.47;;
50337;SDS011;46221;51.178;5.900;2023-03-14T12:54:06;6.15;;;2.20;;
50337;SDS011;46221;51.178;5.900;2023-03-14T12:56:45;5.72;;;1.90;;
50337;SDS011;46221;51.178;5.900;2023-03-14T12:59:33;7.35;;;2.25;;
50337;SDS011;46221;51.178;5.900;2023-03-14T13:02:01;8.05;;;2.35;;
50337;SDS011;46221;51.178;5.900;2023-03-14T13:04:31;6.38;;;2.10;;
50337;SDS011;46221;51.178;5.900;2023-03-14T13:07:10;5.47;;;2.15;;
50337;SDS011;46221;51.178;5.900;2023-03-14T13:09:48;5.65;;;1.90;;
50337;SDS011;46221;51.178;5.900;2023-03-14T13:12:17;6.68;;;2.03;;
50337;SDS011;46221;51.178;5.900;2023-03-14T13:14:45;5.78;;;2.20;;
50337;SDS011;46221;51.178;5.900;2023-03-14T13:17:12;6.57;;;2.38;;
50337;SDS011;46221;51.178;5.900;2023-03-14T13:20:05;7.15;;;1.90;;
50337;SDS011;46221;51.178;5.900;2023-03-14T13:22:36;8.52;;;2.30;;
50337;SDS011;46221;51.178;5.900;2023-03-14T13:25:06;7.70;;;2.65;;
50337;SDS011;46221;51.178;5.900;2023-03-14T13:27:34;9.48;;;2.60;;
50337;SDS011;46221;51.178;5.900;2023-03-14T13:30:44;7.40;;;2.17;;
50337;SDS011;46221;51.178;5.900;2023-03-14T13:32:50;5.25;;;1.80;;
50337;SDS011;46221;51.178;5.900;2023-03-14T13:35:18;7.20;;;1.80;;
50337;SDS011;46221;51.178;5.900;2023-03-14T13:37:45;5.50;;;2.08;;
50337;SDS011;46221;51.178;5.900;2023-03-14T13:40:18;6.25;;;1.80;;
50337;SDS011;46221;51.178;5.900;2023-03-14T13:42:45;7.28;;;2.10;;
50337;SDS011;46221;51.178;5.900;2023-03-14T13:45:14;6.88;;;2.03;;
50337;SDS011;46221;51.178;5.900;2023-03-14T13:47:44;4.95;;;1.50;;
50337;SDS011;46221;51.178;5.900;2023-03-14T13:50:17;7.15;;;2.38;;
50337;SDS011;46221;51.178;5.900;2023-03-14T13:52:44;7.07;;;2.20;;
50337;SDS011;46221;51.178;5.900;2023-03-14T13:55:16;7.13;;;2.33;;
50337;SDS011;46221;51.178;5.900;2023-03-14T13:57:44;6.38;;;2.03;;
50337;SDS011;46221;51.178;5.900;2023-03-14T14:00:20;5.60;;;1.80;;
50337;SDS011;46221;51.178;5.900;2023-03-14T14:02:47;6.10;;;1.90;;
50337;SDS011;46221;51.178;5.900;2023-03-14T14:05:14;5.90;;;2.15;;
50337;SDS011;46221;51.178;5.900;2023-03-14T14:07:40;5.35;;;1.88;;
50337;SDS011;46221;51.178;5.900;2023-03-14T14:10:10;5.80;;;2.45;;
50337;SDS011;46221;51.178;5.900;2023-03-14T14:12:47;8.25;;;2.67;;
50337;SDS011;46221;51.178;5.900;2023-03-14T14:15:18;6.97;;;2.25;;
50337;SDS011;46221;51.178;5.900;2023-03-14T14:17:54;7.18;;;2.20;;
50337;SDS011;46221;51.178;5.900;2023-03-14T14:22:52;9.15;;;2.92;;
50337;SDS011;46221;51.178;5.900;2023-03-14T14:25:19;6.50;;;2.20;;
50337;SDS011;46221;51.178;5.900;2023-03-14T14:27:49;6.65;;;2.40;;
50337;SDS011;46221;51.178;5.900;2023-03-14T14:32:42;6.38;;;1.90;;
50337;SDS011;46221;51.178;5.900;2023-03-14T14:35:10;6.50;;;2.17;;
50337;SDS011;46221;51.178;5.900;2023-03-14T14:37:43;7.90;;;2.40;;
50337;SDS011;46221;51.178;5.900;2023-03-14T14:40:16;5.80;;;2.22;;
50337;SDS011;46221;51.178;5.900;2023-03-14T14:42:42;6.80;;;1.88;;
50337;SDS011;46221;51.178;5.900;2023-03-14T14:45:13;6.07;;;2.22;;
50337;SDS011;46221;51.178;5.900;2023-03-14T14:47:54;8.02;;;2.85;;
50337;SDS011;46221;51.178;5.900;2023-03-14T14:50:37;11.55;;;2.25;;
50337;SDS011;46221;51.178;5.900;2023-03-14T14:56:03;7.72;;;2.65;;
50337;SDS011;46221;51.178;5.900;2023-03-14T14:58:34;7.03;;;2.38;;
50337;SDS011;46221;51.178;5.900;2023-03-14T15:03:33;11.32;;;2.17;;
50337;SDS011;46221;51.178;5.900;2023-03-14T15:06:01;6.93;;;1.80;;
50337;SDS011;46221;51.178;5.900;2023-03-14T15:08:27;5.82;;;2.08;;
50337;SDS011;46221;51.178;5.900;2023-03-14T15:10:55;5.57;;;1.80;;
50337;SDS011;46221;51.178;5.900;2023-03-14T15:13:21;7.20;;;2.03;;
50337;SDS011;46221;51.178;5.900;2023-03-14T15:15:49;7.47;;;1.83;;
50337;SDS011;46221;51.178;5.900;2023-03-14T15:18:22;6.57;;;1.88;;
50337;SDS011;46221;51.178;5.900;2023-03-14T15:20:49;9.05;;;2.00;;
50337;SDS011;46221;51.178;5.900;2023-03-14T15:23:17;4.85;;;1.60;;
50337;SDS011;46221;51.178;5.900;2023-03-14T15:25:43;8.20;;;1.90;;
50337;SDS011;46221;51.178;5.900;2023-03-14T15:28:22;5.47;;;1.63;;
50337;SDS011;46221;51.178;5.900;2023-03-14T15:30:49;6.97;;;2.10;;
50337;SDS011;46221;51.178;5.900;2023-03-14T15:33:16;7.72;;;2.30;;
50337;SDS011;46221;51.178;5.900;2023-03-14T15:35:42;8.50;;;1.95;;
50337;SDS011;46221;51.178;5.900;2023-03-14T15:38:10;5.78;;;1.85;;
50337;SDS011;46221;51.178;5.900;2023-03-14T15:40:36;7.28;;;1.90;;
50337;SDS011;46221;51.178;5.900;2023-03-14T15:43:03;6.97;;;2.58;;
50337;SDS011;46221;51.178;5.900;2023-03-14T15:45:29;6.00;;;1.75;;
50337;SDS011;46221;51.178;5.900;2023-03-14T15:47:56;7.70;;;1.45;;
50337;SDS011;46221;51.178;5.900;2023-03-14T15:50:22;6.07;;;1.90;;
50337;SDS011;46221;51.178;5.900;2023-03-14T15:52:49;6.57;;;2.20;;
50337;SDS011;46221;51.178;5.900;2023-03-14T15:55:15;5.28;;;1.70;;
50337;SDS011;46221;51.178;5.900;2023-03-14T15:57:45;6.15;;;1.75;;